Harmony, California
Current Conditions -  °F | °C
As of 5:53 AM on Monday 20 Oct 2014 (Local Time) from KPRB Reporting Station
Overcast Overcast  
Wind Chill: 56°   Ceiling: 400
Heat Index: 56°   Visibility: 10mi
Dew Point: 52°   Wind: 0mph
Humidity: 87%   Direction: NA
Pressure: 29.94"   Gusts: NA
Location:  35.51°N, 121.03°W
Report Text: KPRB 201253Z AUTO 00000KT 10SM OVC004 13/11 A2994 RMK AO2 SLP134 T01330111 TSNO
Loading
Personal Weather Stations






























Interactive Weather Map
Tropical Storm Tracking
New forecast layout! Learn more

10-Day Weather Forecast

Advertisements
Track Severe Weather on mobile